Terral, Oklahoma
Current Conditions -  °F | °C
As of 7:15 AM on Thursday 23 Oct 2014 (Local Time) from K0F2 Reporting Station
Overcast Overcast  
Wind Chill: 63°   Ceiling: 6500
Heat Index: 63°   Visibility: 10mi
Dew Point: 55°   Wind: 3mph
Humidity: 77%   Direction: 130°SE
Pressure: 30.12"   Gusts: NA
Location:  33.9°N, 97.94°W
Report Text: K0F2 231215Z AUTO 13003KT 10SM OVC065 17/13 A3012 RMK AO2 T01710130
Loading
Personal Weather Stations






























Interactive Weather Map
Tropical Storm Tracking
New forecast layout! Learn more

10-Day Weather Forecast

Advertisements
Track Severe Weather on mobile